BAW26W EGCC-EGJB
Flight info
| Callsign | BAW26W |
|---|---|
| Flight time | N/A |
| Altitude | 23000 |
| Route | LISTO L612 HON N859 CPT Y321 PEPIS/N0406F320 Q41 SAM N63 LELNA |
| Aircraft | RJ1H/M-SDFGIRWY/LB1 |
Departure
| Time | 2026-04-30 18:31 |
|---|---|
| Airport | Manchester Airport (EGCC) |
Arrival
| Time | N/A |
|---|---|
| Airport | Guernsey Airport (EGJB) |
| Time | Latitude | Longitude | Altitude | Speed | Heading |
|---|---|---|---|---|---|
| 2026-04-30 17:41 | 53.36011 | -2.26931 | 255 ft | 0 kts | 314° |
| 2026-04-30 18:15 | 53.35982 | -2.26867 | 255 ft | 3 kts | 282° |
| 2026-04-30 18:16 | 53.35983 | -2.26811 | 255 ft | 0 kts | 258° |
| 2026-04-30 18:16 | 53.35984 | -2.26809 | 255 ft | 0 kts | 258° |
| 2026-04-30 18:17 | 53.35984 | -2.26808 | 255 ft | 0 kts | 258° |
| 2026-04-30 18:17 | 53.35984 | -2.26807 | 255 ft | 0 kts | 258° |
| 2026-04-30 18:17 | 53.35984 | -2.26805 | 255 ft | 0 kts | 258° |
| 2026-04-30 18:23 | 53.35984 | -2.26808 | 255 ft | 2 kts | 258° |
| 2026-04-30 18:23 | 53.35960 | -2.26846 | 255 ft | 7 kts | 183° |
| 2026-04-30 18:23 | 53.35885 | -2.26870 | 255 ft | 17 kts | 230° |
| 2026-04-30 18:24 | 53.35823 | -2.27244 | 255 ft | 15 kts | 263° |
| 2026-04-30 18:24 | 53.35762 | -2.27372 | 255 ft | 14 kts | 231° |
| 2026-04-30 18:24 | 53.35701 | -2.27502 | 255 ft | 14 kts | 231° |
| 2026-04-30 18:25 | 53.35641 | -2.27619 | 255 ft | 13 kts | 219° |
| 2026-04-30 18:25 | 53.35485 | -2.27878 | 247 ft | 18 kts | 231° |
| 2026-04-30 18:25 | 53.35414 | -2.27990 | 243 ft | 10 kts | 222° |
| 2026-04-30 18:26 | 53.35226 | -2.28312 | 233 ft | 23 kts | 229° |
| 2026-04-30 18:26 | 53.35127 | -2.28515 | 228 ft | 19 kts | 231° |
| 2026-04-30 18:26 | 53.35049 | -2.28678 | 223 ft | 18 kts | 229° |
| 2026-04-30 18:27 | 53.34903 | -2.28935 | 215 ft | 10 kts | 228° |
| 2026-04-30 18:27 | 53.34850 | -2.29030 | 212 ft | 12 kts | 229° |
| 2026-04-30 18:28 | 53.34733 | -2.29262 | 213 ft | 15 kts | 226° |
| 2026-04-30 18:28 | 53.34682 | -2.29326 | 206 ft | 0 kts | 202° |
| 2026-04-30 18:29 | 53.34545 | -2.29222 | 201 ft | 9 kts | 68° |
| 2026-04-30 18:30 | 53.34557 | -2.29193 | 203 ft | 4 kts | 52° |
| 2026-04-30 18:30 | 53.35130 | -2.27963 | 275 ft | 137 kts | 51° |
| 2026-04-30 18:31 | 53.35794 | -2.26709 | 906 ft | 144 kts | 48° |
| 2026-04-30 18:31 | 53.36945 | -2.24292 | 2803 ft | 126 kts | 62° |
| 2026-04-30 18:32 | 53.36595 | -2.21684 | 4042 ft | 144 kts | 128° |
| 2026-04-30 18:32 | 53.36043 | -2.20147 | 4859 ft | 163 kts | 126° |
| 2026-04-30 18:32 | 53.34445 | -2.16836 | 5974 ft | 226 kts | 156° |
| 2026-04-30 18:33 | 53.32778 | -2.16483 | 5824 ft | 254 kts | 183° |
| 2026-04-30 18:33 | 53.29258 | -2.17055 | 5653 ft | 254 kts | 185° |
| 2026-04-30 18:33 | 53.27515 | -2.17465 | 5632 ft | 252 kts | 189° |
| 2026-04-30 18:34 | 53.25778 | -2.17983 | 5623 ft | 252 kts | 186° |
| 2026-04-30 18:34 | 53.22301 | -2.18591 | 5606 ft | 252 kts | 184° |
| 2026-04-30 18:34 | 53.20567 | -2.18868 | 5612 ft | 251 kts | 184° |
| 2026-04-30 18:35 | 53.18844 | -2.19136 | 5604 ft | 251 kts | 184° |
| 2026-04-30 18:35 | 53.17102 | -2.19405 | 5620 ft | 253 kts | 184° |
| 2026-04-30 18:35 | 53.15345 | -2.19664 | 5905 ft | 253 kts | 182° |
| 2026-04-30 18:36 | 53.11971 | -2.18201 | 6925 ft | 256 kts | 159° |
| 2026-04-30 18:36 | 53.10303 | -2.17132 | 7438 ft | 257 kts | 159° |
| 2026-04-30 18:36 | 53.06972 | -2.14825 | 8384 ft | 262 kts | 157° |
| 2026-04-30 18:37 | 53.05286 | -2.13627 | 8851 ft | 264 kts | 158° |
| 2026-04-30 18:37 | 53.03586 | -2.12439 | 9315 ft | 266 kts | 158° |
| 2026-04-30 18:37 | 53.01876 | -2.11249 | 9773 ft | 268 kts | 158° |
| 2026-04-30 18:37 | 53.00174 | -2.10067 | 10200 ft | 269 kts | 158° |
| 2026-04-30 18:38 | 52.98440 | -2.08863 | 10638 ft | 271 kts | 158° |
| 2026-04-30 18:38 | 52.96689 | -2.07651 | 10913 ft | 279 kts | 158° |
| 2026-04-30 18:38 | 52.94846 | -2.06381 | 10960 ft | 294 kts | 158° |
| 2026-04-30 18:38 | 52.92916 | -2.05061 | 11191 ft | 304 kts | 158° |
| 2026-04-30 18:39 | 52.90957 | -2.03725 | 11451 ft | 304 kts | 158° |
| 2026-04-30 18:39 | 52.89007 | -2.02401 | 11702 ft | 303 kts | 158° |
| 2026-04-30 18:39 | 52.87050 | -2.01071 | 11959 ft | 304 kts | 158° |
| 2026-04-30 18:39 | 52.85096 | -1.99721 | 12216 ft | 304 kts | 157° |
| 2026-04-30 18:40 | 52.83141 | -1.98364 | 12464 ft | 306 kts | 158° |
| 2026-04-30 18:40 | 52.81170 | -1.97015 | 12720 ft | 308 kts | 158° |
| 2026-04-30 18:40 | 52.79214 | -1.95675 | 12975 ft | 308 kts | 158° |
| 2026-04-30 18:40 | 52.77233 | -1.94319 | 13253 ft | 309 kts | 158° |
| 2026-04-30 18:41 | 52.75250 | -1.92962 | 13632 ft | 309 kts | 157° |
| 2026-04-30 18:41 | 52.73259 | -1.91592 | 14107 ft | 308 kts | 157° |
| 2026-04-30 18:41 | 52.71289 | -1.90248 | 14695 ft | 307 kts | 158° |
| 2026-04-30 18:41 | 52.69316 | -1.88921 | 15296 ft | 306 kts | 158° |
| 2026-04-30 18:42 | 52.67347 | -1.87591 | 15910 ft | 305 kts | 158° |
| 2026-04-30 18:42 | 52.63450 | -1.84980 | 17163 ft | 303 kts | 158° |
| 2026-04-30 18:42 | 52.61507 | -1.83660 | 17811 ft | 302 kts | 158° |
| 2026-04-30 18:45 | 52.42783 | -1.71078 | 23158 ft | 299 kts | 158° |
| 2026-04-30 18:45 | 52.40813 | -1.69759 | 23188 ft | 311 kts | 158° |
| 2026-04-30 18:45 | 52.38772 | -1.68392 | 23200 ft | 323 kts | 158° |
| 2026-04-30 18:46 | 52.36650 | -1.66968 | 23208 ft | 335 kts | 158° |
| 2026-04-30 18:46 | 52.34442 | -1.65565 | 23211 ft | 346 kts | 160° |
| 2026-04-30 18:46 | 52.32128 | -1.64291 | 23217 ft | 355 kts | 162° |
| 2026-04-30 18:46 | 52.29764 | -1.63090 | 23201 ft | 356 kts | 162° |
| 2026-04-30 18:47 | 52.27430 | -1.61908 | 23233 ft | 354 kts | 162° |
| 2026-04-30 18:47 | 52.25086 | -1.60718 | 23231 ft | 352 kts | 162° |
| 2026-04-30 18:47 | 52.22742 | -1.59531 | 23228 ft | 354 kts | 162° |
| 2026-04-30 18:47 | 52.20386 | -1.58335 | 23231 ft | 354 kts | 162° |
| 2026-04-30 18:48 | 52.18038 | -1.57106 | 23232 ft | 354 kts | 161° |
| 2026-04-30 18:48 | 52.15695 | -1.55870 | 23231 ft | 354 kts | 161° |
| 2026-04-30 18:48 | 52.13339 | -1.54650 | 23228 ft | 356 kts | 162° |
| 2026-04-30 18:48 | 52.10982 | -1.53435 | 23229 ft | 355 kts | 161° |
| 2026-04-30 18:49 | 52.08631 | -1.52205 | 23220 ft | 355 kts | 161° |
| 2026-04-30 18:49 | 52.06307 | -1.51012 | 23217 ft | 355 kts | 162° |
| 2026-04-30 18:49 | 52.03953 | -1.49803 | 23217 ft | 355 kts | 161° |
| 2026-04-30 18:49 | 52.01594 | -1.48571 | 23213 ft | 356 kts | 162° |
| 2026-04-30 18:50 | 51.99233 | -1.47366 | 23181 ft | 356 kts | 162° |
| 2026-04-30 18:50 | 51.96869 | -1.46140 | 23182 ft | 356 kts | 161° |
| 2026-04-30 18:50 | 51.94510 | -1.44923 | 23182 ft | 356 kts | 162° |
| 2026-04-30 18:50 | 51.92141 | -1.43728 | 23183 ft | 357 kts | 162° |
| 2026-04-30 18:51 | 51.89774 | -1.42507 | 23183 ft | 357 kts | 161° |
| 2026-04-30 18:51 | 51.87444 | -1.41300 | 23183 ft | 357 kts | 162° |
| 2026-04-30 18:51 | 51.85077 | -1.40097 | 23187 ft | 357 kts | 162° |
| 2026-04-30 18:51 | 51.82708 | -1.38874 | 23185 ft | 357 kts | 162° |
| 2026-04-30 18:52 | 51.80342 | -1.37672 | 23188 ft | 357 kts | 162° |
| 2026-04-30 18:52 | 51.77968 | -1.36455 | 23186 ft | 357 kts | 162° |
| 2026-04-30 18:52 | 51.75595 | -1.35252 | 23183 ft | 357 kts | 162° |
| 2026-04-30 18:52 | 51.73228 | -1.34036 | 23181 ft | 357 kts | 162° |
| 2026-04-30 18:53 | 51.70856 | -1.32829 | 23178 ft | 357 kts | 162° |
| 2026-04-30 18:53 | 51.68484 | -1.31637 | 23180 ft | 358 kts | 162° |
| 2026-04-30 18:53 | 51.66143 | -1.30441 | 23182 ft | 358 kts | 161° |
| 2026-04-30 18:53 | 51.63772 | -1.29232 | 23184 ft | 358 kts | 162° |
| 2026-04-30 18:54 | 51.61390 | -1.28037 | 23182 ft | 358 kts | 161° |
| 2026-04-30 18:54 | 51.59020 | -1.26831 | 23183 ft | 358 kts | 161° |
| 2026-04-30 18:54 | 51.56646 | -1.25623 | 23141 ft | 358 kts | 162° |
| 2026-04-30 18:54 | 51.54268 | -1.24443 | 23161 ft | 357 kts | 162° |
| 2026-04-30 18:55 | 51.51898 | -1.23253 | 23168 ft | 358 kts | 162° |
| 2026-04-30 18:55 | 51.46977 | -1.22064 | 23178 ft | 361 kts | 177° |
| 2026-04-30 18:55 | 51.44495 | -1.22111 | 23175 ft | 362 kts | 179° |
| 2026-04-30 18:56 | 51.39465 | -1.22546 | 23170 ft | 362 kts | 181° |
| 2026-04-30 18:56 | 51.36943 | -1.22808 | 23154 ft | 363 kts | 181° |
| 2026-04-30 18:56 | 51.34428 | -1.23045 | 23151 ft | 362 kts | 181° |
| 2026-04-30 18:57 | 51.29427 | -1.23505 | 23156 ft | 362 kts | 181° |
| 2026-04-30 18:57 | 51.26908 | -1.23724 | 23157 ft | 363 kts | 180° |
| 2026-04-30 18:57 | 51.24387 | -1.23910 | 23156 ft | 363 kts | 180° |
| 2026-04-30 18:58 | 51.19347 | -1.24466 | 23149 ft | 365 kts | 186° |
| 2026-04-30 18:58 | 51.16857 | -1.25287 | 23118 ft | 367 kts | 190° |
| 2026-04-30 18:58 | 51.14381 | -1.26302 | 23116 ft | 367 kts | 192° |
| 2026-04-30 18:59 | 51.09459 | -1.28479 | 23103 ft | 368 kts | 192° |
| 2026-04-30 19:00 | 51.02086 | -1.31694 | 23095 ft | 368 kts | 192° |
| 2026-04-30 19:00 | 50.99618 | -1.32727 | 23085 ft | 367 kts | 191° |
| 2026-04-30 19:00 | 50.94711 | -1.35020 | 23089 ft | 371 kts | 199° |
| 2026-04-30 19:01 | 50.90041 | -1.38567 | 23082 ft | 373 kts | 203° |
| 2026-04-30 19:01 | 50.87737 | -1.40472 | 23085 ft | 373 kts | 203° |
| 2026-04-30 19:02 | 50.83163 | -1.44248 | 23080 ft | 373 kts | 203° |
| 2026-04-30 19:02 | 50.78545 | -1.47964 | 23069 ft | 373 kts | 202° |
| 2026-04-30 19:03 | 50.73908 | -1.51659 | 23059 ft | 373 kts | 202° |
| 2026-04-30 19:03 | 50.69273 | -1.55334 | 23045 ft | 373 kts | 202° |
| 2026-04-30 19:04 | 50.64630 | -1.59002 | 23054 ft | 373 kts | 202° |
| 2026-04-30 19:04 | 50.60037 | -1.62614 | 22165 ft | 370 kts | 202° |
| 2026-04-30 19:05 | 50.55479 | -1.66183 | 20783 ft | 361 kts | 202° |
| 2026-04-30 19:05 | 50.51023 | -1.69656 | 19448 ft | 354 kts | 202° |
| 2026-04-30 19:06 | 50.46644 | -1.73060 | 18168 ft | 348 kts | 202° |
| 2026-04-30 19:06 | 50.44520 | -1.74719 | 17506 ft | 344 kts | 202° |
| 2026-04-30 19:06 | 50.40278 | -1.78047 | 16207 ft | 338 kts | 203° |
| 2026-04-30 19:07 | 50.36111 | -1.81306 | 14995 ft | 332 kts | 202° |
| 2026-04-30 19:07 | 50.34053 | -1.82920 | 14400 ft | 329 kts | 203° |
| 2026-04-30 19:08 | 50.29996 | -1.86115 | 13214 ft | 324 kts | 203° |
| 2026-04-30 19:08 | 50.26011 | -1.89191 | 12050 ft | 319 kts | 203° |
| 2026-04-30 19:08 | 50.24030 | -1.90719 | 11477 ft | 317 kts | 203° |
| 2026-04-30 19:09 | 50.20105 | -1.93735 | 10406 ft | 312 kts | 203° |
| 2026-04-30 19:09 | 50.18148 | -1.95233 | 10162 ft | 314 kts | 203° |
| 2026-04-30 19:09 | 50.16227 | -1.96714 | 10061 ft | 297 kts | 204° |
| 2026-04-30 19:10 | 50.12464 | -1.99611 | 10020 ft | 301 kts | 203° |
| 2026-04-30 19:10 | 50.08706 | -2.02503 | 10022 ft | 302 kts | 204° |
| 2026-04-30 19:11 | 50.06865 | -2.03917 | 9549 ft | 299 kts | 204° |
| 2026-04-30 19:11 | 50.03312 | -2.07295 | 9065 ft | 302 kts | 220° |
| 2026-04-30 19:11 | 50.01823 | -2.09586 | 9031 ft | 302 kts | 222° |
| 2026-04-30 19:12 | 50.00342 | -2.11912 | 9025 ft | 302 kts | 223° |
| 2026-04-30 19:12 | 49.98878 | -2.14261 | 9016 ft | 303 kts | 223° |
| 2026-04-30 19:12 | 49.97422 | -2.16621 | 9019 ft | 302 kts | 223° |
| 2026-04-30 19:13 | 49.94525 | -2.21316 | 9019 ft | 303 kts | 223° |
| 2026-04-30 19:13 | 49.91597 | -2.25965 | 8418 ft | 300 kts | 223° |
| 2026-04-30 19:13 | 49.90141 | -2.28265 | 8001 ft | 297 kts | 223° |
| 2026-04-30 19:14 | 49.88695 | -2.30540 | 7575 ft | 295 kts | 222° |
| 2026-04-30 19:14 | 49.87262 | -2.32797 | 7170 ft | 293 kts | 223° |
| 2026-04-30 19:14 | 49.85833 | -2.35037 | 6752 ft | 291 kts | 222° |
| 2026-04-30 19:14 | 49.84415 | -2.37260 | 6399 ft | 288 kts | 222° |
| 2026-04-30 19:15 | 49.83055 | -2.39384 | 6165 ft | 266 kts | 222° |
| 2026-04-30 19:15 | 49.80626 | -2.43140 | 5599 ft | 232 kts | 221° |
| 2026-04-30 19:15 | 49.79879 | -2.44293 | 5308 ft | 230 kts | 221° |
| 2026-04-30 19:16 | 49.79222 | -2.45302 | 5218 ft | 261 kts | 221° |
| 2026-04-30 19:16 | 49.77782 | -2.47486 | 5261 ft | 314 kts | 222° |
| 2026-04-30 19:16 | 49.76748 | -2.49057 | 5298 ft | 0 kts | 222° |